Time;durP1;ratioP1;P1;durP2;ratioP2;P2;SDS_P1;SDS_P2;PMS_P1;PMS_P2;Temp;Humidity;BMP_temperature;BMP_pressure;BME280_temperature;BME280_humidity;BME280_pressure;Samples;Min_cycle;Max_cycle;Signal;HPM_P1;HPM_P2
2021/07/27 00:00:36;;;;;;;;;14.33;14.00;;;;;21.88;57.93;101008.06;4789108;29;45682;-85
2021/07/27 00:03:03;;;;;;;;;13.33;12.00;;;;;21.95;57.97;101019.47;4789352;29;45410;-86
2021/07/27 00:05:28;;;;;;;;;18.67;13.00;;;;;21.95;58.43;101022.16;4789173;29;45452;-87
2021/07/27 00:07:54;;;;;;;;;15.00;14.00;;;;;21.91;58.82;101016.00;4772878;29;45529;-87
2021/07/27 00:10:20;;;;;;;;;16.67;14.00;;;;;21.89;58.25;101017.84;4789284;29;46522;-87
2021/07/27 00:12:46;;;;;;;;;12.67;12.00;;;;;21.84;57.95;101017.06;4772783;29;45790;-86
2021/07/27 00:15:11;;;;;;;;;14.00;11.33;;;;;21.80;57.83;101018.94;4772957;29;45523;-86
2021/07/27 00:17:37;;;;;;;;;15.00;14.00;;;;;21.76;57.69;101011.91;4789348;29;45226;-86
2021/07/27 00:20:03;;;;;;;;;14.00;13.00;;;;;21.69;58.52;101005.81;4789095;29;46271;-87
2021/07/27 00:22:28;;;;;;;;;12.00;10.67;;;;;21.70;58.14;101004.88;4788724;29;45547;-86
2021/07/27 00:24:53;;;;;;;;;15.00;12.00;;;;;21.66;58.06;101000.53;4789257;29;45413;-86
2021/07/27 00:27:19;;;;;;;;;16.00;11.33;;;;;21.63;57.89;101000.63;4789007;29;45291;-85
2021/07/27 00:29:45;;;;;;;;;15.00;11.00;;;;;21.60;57.92;100996.22;4788745;29;45392;-87
2021/07/27 00:32:11;;;;;;;;;13.00;13.00;;;;;21.59;58.06;100991.78;4772899;29;45361;-86
2021/07/27 00:34:36;;;;;;;;;12.00;12.00;;;;;21.53;58.17;100983.94;4788973;29;45352;-86
2021/07/27 00:37:02;;;;;;;;;15.67;11.67;;;;;21.55;57.93;100990.13;4789060;29;45387;-85
2021/07/27 00:39:27;;;;;;;;;15.33;13.33;;;;;21.52;58.22;100990.19;4788597;29;46536;-86
2021/07/27 00:41:53;;;;;;;;;11.67;9.67;;;;;21.54;58.20;100991.00;4788641;29;45408;-87
2021/07/27 00:44:18;;;;;;;;;10.67;9.00;;;;;21.50;58.00;100981.31;4789135;29;45529;-86
2021/07/27 00:46:44;;;;;;;;;13.00;12.00;;;;;21.48;57.92;100975.13;4789143;29;45442;-86
2021/07/27 00:49:10;;;;;;;;;13.00;11.33;;;;;21.49;58.19;100977.75;4789058;29;46394;-86
2021/07/27 00:51:36;;;;;;;;;16.00;12.33;;;;;21.49;58.17;100987.59;4772370;29;45425;-87
2021/07/27 00:54:01;;;;;;;;;12.67;12.33;;;;;21.45;58.24;100986.75;4789023;29;45325;-84
2021/07/27 00:56:27;;;;;;;;;15.67;11.00;;;;;21.48;58.57;100991.16;4788996;29;45365;-87
2021/07/27 00:58:53;;;;;;;;;13.33;13.33;;;;;21.46;57.99;100987.66;4772086;29;47312;-86
2021/07/27 01:01:19;;;;;;;;;14.67;12.67;;;;;21.42;58.02;100989.53;4788598;29;45934;-87
2021/07/27 01:03:45;;;;;;;;;11.00;11.00;;;;;21.34;58.29;100976.31;4788668;29;45398;-88
2021/07/27 01:06:10;;;;;;;;;14.33;12.00;;;;;21.38;58.37;100987.84;4774046;29;45427;-85
2021/07/27 01:08:37;;;;;;;;;12.00;12.00;;;;;21.37;58.54;100988.75;4792028;29;45937;-87
2021/07/27 01:11:04;;;;;;;;;12.33;12.00;;;;;21.35;58.53;100987.91;4775235;29;45358;-87
2021/07/27 01:13:29;;;;;;;;;11.00;10.00;;;;;21.34;58.73;100988.84;4791729;29;45400;-86
2021/07/27 01:15:59;;;;;;;;;13.00;13.00;;;;;21.33;58.43;100993.28;4791577;29;45322;-87
2021/07/27 01:18:28;;;;;;;;;12.33;11.67;;;;;21.27;58.71;100980.06;4775282;29;46532;-86
2021/07/27 01:39:58;;;;;;;;;12.00;12.00;;;;;21.24;58.86;100970.31;4792753;29;45271;-86
2021/07/27 01:42:24;;;;;;;;;14.00;12.00;;;;;21.24;59.10;100980.13;4793884;29;45447;-86
2021/07/27 01:44:49;;;;;;;;;13.67;13.00;;;;;21.21;59.27;100966.84;4793474;29;45274;-86
2021/07/27 01:47:19;;;;;;;;;15.33;12.33;;;;;21.23;59.65;100975.72;4793730;29;45342;-87
2021/07/27 01:49:45;;;;;;;;;20.00;13.33;;;;;21.24;59.44;100977.47;4791520;29;45384;-87
2021/07/27 01:52:15;;;;;;;;;15.33;11.00;;;;;21.23;59.30;100970.38;4791139;29;45362;-86
2021/07/27 01:54:40;;;;;;;;;12.33;12.33;;;;;21.24;59.50;100969.44;4774797;29;45401;-86
2021/07/27 01:57:13;;;;;;;;;13.33;11.67;;;;;21.17;59.15;100961.56;4791548;29;45282;-86
2021/07/27 01:59:39;;;;;;;;;15.00;12.67;;;;;21.16;59.16;100962.50;4791011;29;45567;-87
2021/07/27 02:02:05;;;;;;;;;13.67;11.33;;;;;21.20;59.25;100971.31;4790863;29;45384;-86
2021/07/27 02:04:31;;;;;;;;;11.00;11.00;;;;;21.21;59.08;100969.53;4791087;29;45295;-85
2021/07/27 02:06:56;;;;;;;;;19.67;14.00;;;;;21.13;59.58;100951.84;4790795;29;45417;-86
2021/07/27 02:09:22;;;;;;;;;9.00;9.00;;;;;21.19;60.07;100958.00;4774622;29;47204;-86
2021/07/27 02:11:51;;;;;;;;;13.33;12.00;;;;;21.19;60.05;100964.22;4774350;29;45383;-86
2021/07/27 02:14:17;;;;;;;;;11.67;11.33;;;;;21.13;59.62;100948.34;4791338;29;45439;-86
2021/07/27 02:16:43;;;;;;;;;15.67;12.67;;;;;21.17;59.74;100971.41;4791953;29;45321;-85
2021/07/27 02:19:08;;;;;;;;;14.00;12.33;;;;;21.15;59.75;100966.06;4792216;29;46367;-86
2021/07/27 02:21:33;;;;;;;;;14.00;11.67;;;;;21.15;59.88;100960.72;4800560;29;45356;-86
2021/07/27 02:24:00;;;;;;;;;13.67;13.00;;;;;21.17;59.95;100960.72;4813479;29;45356;-85
2021/07/27 02:26:25;;;;;;;;;13.00;10.33;;;;;21.15;60.14;100966.06;4815498;29;44763;-85
2021/07/27 02:28:51;;;;;;;;;13.00;13.00;;;;;21.15;59.95;100958.06;4810340;29;45525;-85
2021/07/27 02:31:24;;;;;;;;;15.00;13.00;;;;;21.07;59.90;100946.66;4794302;29;45179;-85
2021/07/27 02:33:49;;;;;;;;;15.33;11.67;;;;;21.14;59.58;100958.97;4793399;29;45468;-85
2021/07/27 02:36:15;;;;;;;;;12.33;12.33;;;;;21.08;59.73;100940.41;4791474;29;45341;-85
2021/07/27 02:38:40;;;;;;;;;15.33;12.67;;;;;21.12;59.66;100950.13;4791760;29;45551;-86
2021/07/27 02:41:05;;;;;;;;;15.33;14.00;;;;;21.11;60.07;100943.00;4791660;29;45385;-85
2021/07/27 02:43:32;;;;;;;;;13.33;12.67;;;;;21.15;59.77;100946.50;4790498;29;45584;-85
2021/07/27 02:45:57;;;;;;;;;15.67;13.67;;;;;21.10;59.76;100935.91;4791042;29;45194;-85
2021/07/27 02:48:22;;;;;;;;;14.00;13.00;;;;;21.11;59.80;100940.31;4790367;29;46343;-86
2021/07/27 02:51:00;;;;;;;;;20.00;16.00;;;;;21.09;60.24;100941.31;4790407;29;45343;-86
2021/07/27 02:53:29;;;;;;;;;12.67;12.67;;;;;21.11;60.00;100944.81;4788846;29;45448;-86
2021/07/27 02:55:55;;;;;;;;;13.00;11.00;;;;;21.11;60.26;100945.66;4790499;29;45239;-86
2021/07/27 02:58:20;;;;;;;;;16.00;13.00;;;;;21.11;60.15;100945.66;4773518;29;48574;-86
2021/07/27 03:00:45;;;;;;;;;17.33;14.00;;;;;21.08;60.19;100951.09;4790105;29;45441;-86
2021/07/27 03:03:11;;;;;;;;;17.00;13.67;;;;;21.10;59.97;100945.72;4790283;29;45493;-85
2021/07/27 03:05:36;;;;;;;;;14.33;14.00;;;;;21.08;60.18;100943.09;4790507;29;45657;-86
2021/07/27 03:08:10;;;;;;;;;11.33;9.00;;;;;21.07;60.19;100943.13;4790046;29;45449;-86
2021/07/27 03:10:36;;;;;;;;;16.00;15.67;;;;;21.07;59.75;100941.31;4773750;29;45467;-86
2021/07/27 03:13:01;;;;;;;;;15.00;12.00;;;;;21.06;60.06;100936.91;4790119;29;45464;-86
2021/07/27 03:15:29;;;;;;;;;15.00;14.00;;;;;21.07;60.21;100945.81;4790215;29;45414;-85
2021/07/27 03:17:56;;;;;;;;;17.33;13.00;;;;;21.06;60.04;100944.91;4773427;29;47595;-86
2021/07/27 03:20:23;;;;;;;;;17.33;13.33;;;;;21.03;60.32;100936.97;4789624;29;45425;-85
2021/07/27 03:22:51;;;;;;;;;16.00;15.67;;;;;21.01;60.52;100928.09;4789725;29;46762;-86
2021/07/27 03:25:17;;;;;;;;;11.00;11.00;;;;;20.97;60.40;100919.25;4790072;29;45575;-85
2021/07/27 03:27:44;;;;;;;;;16.67;15.00;;;;;21.01;60.50;100928.09;4789616;29;46255;-86
2021/07/27 03:30:10;;;;;;;;;14.67;14.33;;;;;21.03;60.47;100918.25;4789814;29;45342;-87
2021/07/27 03:32:36;;;;;;;;;19.00;13.67;;;;;21.01;60.35;100925.41;4789831;29;45458;-86
2021/07/27 03:35:03;;;;;;;;;12.67;11.33;;;;;20.97;60.33;100916.56;4773888;29;45456;-85
2021/07/27 03:37:28;;;;;;;;;14.00;11.00;;;;;20.94;60.27;100914.84;4789647;29;46685;-86
2021/07/27 03:39:54;;;;;;;;;19.33;13.00;;;;;20.90;60.26;100905.16;4802608;29;45321;-85
2021/07/27 03:42:19;;;;;;;;;11.67;11.67;;;;;20.93;60.28;100905.09;4791673;29;45479;-84
2021/07/27 03:44:45;;;;;;;;;16.00;13.67;;;;;20.92;60.34;100906.00;4805746;29;45275;-84
2021/07/27 03:47:11;;;;;;;;;12.33;11.67;;;;;20.91;60.90;100898.91;4797732;29;46287;-85
2021/07/27 03:49:36;;;;;;;;;13.33;10.67;;;;;20.88;60.43;100896.28;4790161;29;45275;-87
2021/07/27 03:52:04;;;;;;;;;15.33;11.00;;;;;20.81;60.51;100876.00;4790046;29;45302;-86
2021/07/27 03:54:31;;;;;;;;;13.00;11.00;;;;;20.92;60.26;100902.44;4789979;29;45464;-86
2021/07/27 03:56:56;;;;;;;;;17.33;14.67;;;;;20.92;60.91;100900.63;4789560;29;46259;-86
2021/07/27 03:59:21;;;;;;;;;14.33;12.67;;;;;20.91;60.41;100896.22;4789506;29;45514;-86
2021/07/27 04:01:48;;;;;;;;;13.00;12.00;;;;;20.90;60.61;100894.47;4789519;29;45386;-86
2021/07/27 04:04:15;;;;;;;;;17.33;14.67;;;;;20.90;60.37;100901.59;4789551;29;45405;-85
2021/07/27 04:06:40;;;;;;;;;15.00;12.67;;;;;20.92;60.49;100897.97;4772719;29;48212;-85
2021/07/27 04:09:06;;;;;;;;;19.50;14.50;;;;;20.93;60.36;100898.84;4789388;29;45335;-85
2021/07/27 04:11:31;;;;;;;;;15.33;14.00;;;;;20.91;60.56;100893.56;4789332;29;45465;-85
2021/07/27 04:13:56;;;;;;;;;15.00;13.00;;;;;20.93;60.44;100901.53;4773151;29;45303;-88
2021/07/27 04:16:22;;;;;;;;;12.00;12.00;;;;;20.91;60.93;100896.22;4789347;29;46127;-85
2021/07/27 04:18:51;;;;;;;;;16.33;12.00;;;;;20.90;60.83;100904.25;4772534;29;45304;-86
2021/07/27 04:21:17;;;;;;;;;14.67;12.00;;;;;20.85;60.68;100895.50;4789460;29;45315;-85
2021/07/27 04:23:42;;;;;;;;;11.00;11.00;;;;;20.82;60.64;100897.31;4787867;29;45718;-86
2021/07/27 04:26:08;;;;;;;;;15.00;11.00;;;;;20.83;60.55;100907.06;4789150;29;45414;-87
2021/07/27 04:28:33;;;;;;;;;14.33;13.33;;;;;20.80;60.56;100904.50;4788941;29;45529;-85
2021/07/27 04:30:59;;;;;;;;;17.33;12.00;;;;;20.82;60.61;100917.81;4788908;29;45459;-86
2021/07/27 04:33:27;;;;;;;;;15.00;12.33;;;;;20.83;60.57;100912.41;4789166;29;45572;-87
2021/07/27 04:35:53;;;;;;;;;19.00;15.33;;;;;20.82;60.66;100912.47;4788680;29;45334;-87
2021/07/27 04:38:20;;;;;;;;;14.00;11.00;;;;;20.78;60.92;100908.09;4788735;29;45450;-86
2021/07/27 04:40:45;;;;;;;;;15.67;14.33;;;;;20.79;60.83;100909.88;4791505;29;45358;-86
2021/07/27 04:43:13;;;;;;;;;15.33;14.00;;;;;20.83;60.82;100911.56;4778931;29;45733;-87
2021/07/27 04:45:38;;;;;;;;;16.00;14.00;;;;;20.82;60.56;100905.31;4794862;29;45517;-87
2021/07/27 04:48:04;;;;;;;;;14.67;13.33;;;;;20.80;60.67;100887.56;4794771;29;45414;-85
2021/07/27 04:50:29;;;;;;;;;14.00;13.33;;;;;20.83;60.96;100888.38;4778518;29;45467;-87
2021/07/27 04:53:06;;;;;;;;;14.00;12.33;;;;;20.86;61.01;100883.88;4795093;29;45326;-87
2021/07/27 04:55:32;;;;;;;;;14.33;12.33;;;;;20.84;60.75;100891.94;4794450;29;46445;-86
2021/07/27 04:57:57;;;;;;;;;16.00;14.33;;;;;20.85;60.71;100896.38;4794628;29;45424;-86
2021/07/27 05:00:26;;;;;;;;;15.00;12.00;;;;;20.86;61.06;100910.59;4793770;29;45309;-87
2021/07/27 05:02:51;;;;;;;;;15.67;12.00;;;;;20.87;60.73;100913.25;4794770;29;45444;-86
2021/07/27 05:05:17;;;;;;;;;12.67;12.67;;;;;20.81;60.83;100890.19;4778223;29;45932;-85
2021/07/27 05:07:46;;;;;;;;;18.00;16.00;;;;;20.87;60.77;100904.34;4794472;29;45371;-86
2021/07/27 05:10:12;;;;;;;;;16.00;14.33;;;;;20.86;60.98;100902.56;4794902;29;45302;-86
2021/07/27 05:12:38;;;;;;;;;15.00;14.33;;;;;20.82;60.84;100886.63;4795046;29;45357;-86
2021/07/27 05:15:04;;;;;;;;;14.33;13.00;;;;;20.84;60.76;100894.59;4794360;29;46449;-87
2021/07/27 05:17:30;;;;;;;;;15.67;13.67;;;;;20.79;60.93;100889.34;4794488;29;45386;-87
2021/07/27 05:19:55;;;;;;;;;16.00;12.67;;;;;20.82;60.77;100899.09;4794664;29;45365;-87
2021/07/27 05:22:23;;;;;;;;;13.33;11.67;;;;;20.80;61.03;100909.81;4794486;29;45412;-87
2021/07/27 05:24:52;;;;;;;;;17.00;14.67;;;;;20.77;60.71;100904.53;4794156;29;46338;-86
2021/07/27 05:27:24;;;;;;;;;14.33;14.33;;;;;20.78;60.79;100908.09;4794384;29;45207;-87
2021/07/27 05:29:51;;;;;;;;;15.67;14.33;;;;;20.75;60.84;100917.06;4794321;29;45290;-86
2021/07/27 05:32:17;;;;;;;;;13.00;12.33;;;;;20.71;60.76;100902.91;4794278;29;45490;-86
2021/07/27 05:34:43;;;;;;;;;16.00;11.67;;;;;20.73;60.88;100908.19;4794090;29;46008;-86
2021/07/27 05:37:08;;;;;;;;;13.33;13.33;;;;;20.75;61.21;100908.19;4793895;29;45361;-86
2021/07/27 05:39:34;;;;;;;;;15.00;12.67;;;;;20.69;60.67;100918.06;4794453;29;45425;-88
2021/07/27 05:41:59;;;;;;;;;15.00;15.00;;;;;20.69;60.75;100926.09;4793981;29;45222;-87
2021/07/27 05:44:25;;;;;;;;;14.33;13.67;;;;;20.71;60.57;100926.06;4794374;29;46532;-87
2021/07/27 05:47:00;;;;;;;;;11.67;11.67;;;;;20.66;60.54;100934.19;4792587;29;45473;-86
2021/07/27 05:49:26;;;;;;;;;18.67;15.67;;;;;20.64;60.63;100938.69;4794077;29;45390;-87
2021/07/27 05:51:52;;;;;;;;;19.00;17.00;;;;;20.64;60.75;100929.78;4775852;29;45376;-87
2021/07/27 05:54:20;;;;;;;;;14.67;14.00;;;;;20.64;60.98;100937.78;4790994;29;45408;-86
2021/07/27 05:56:47;;;;;;;;;13.67;13.67;;;;;20.62;60.79;100935.16;4790807;29;45308;-87
2021/07/27 05:59:16;;;;;;;;;15.33;13.67;;;;;20.54;60.76;100929.97;4791091;29;45326;-86
2021/07/27 06:01:42;;;;;;;;;18.67;14.00;;;;;20.58;60.59;100947.69;4789686;29;45533;-86
2021/07/27 06:04:08;;;;;;;;;13.00;11.00;;;;;20.57;60.85;100951.28;4790730;29;46208;-86
2021/07/27 06:06:34;;;;;;;;;14.00;13.67;;;;;20.58;60.75;100952.16;4790692;29;45418;-87
2021/07/27 06:09:03;;;;;;;;;15.00;13.33;;;;;20.56;61.08;100949.50;4790973;29;45359;-87
2021/07/27 06:11:28;;;;;;;;;16.67;13.33;;;;;20.56;61.13;100948.66;4791123;29;45239;-87
2021/07/27 06:13:54;;;;;;;;;15.67;15.00;;;;;20.56;61.02;100959.34;4791114;29;45657;-86
2021/07/27 06:16:19;;;;;;;;;17.00;14.00;;;;;20.55;60.82;100968.25;4792409;29;45530;-86
2021/07/27 06:18:45;;;;;;;;;12.67;11.67;;;;;20.52;61.19;100963.84;4792844;29;45378;-87
2021/07/27 06:21:11;;;;;;;;;14.00;14.00;;;;;20.51;61.14;100961.22;4775683;29;45455;-87
2021/07/27 06:23:37;;;;;;;;;15.00;13.33;;;;;20.49;61.19;100961.25;4791710;29;45455;-86
2021/07/27 06:26:06;;;;;;;;;16.00;13.00;;;;;20.50;61.52;100951.41;4776039;29;45449;-87
2021/07/27 06:28:33;;;;;;;;;14.33;14.33;;;;;20.51;61.38;100942.50;4792509;29;45457;-85
2021/07/27 06:30:58;;;;;;;;;12.00;12.00;;;;;20.50;61.28;100936.28;4792184;29;45283;-87
2021/07/27 06:33:24;;;;;;;;;14.00;14.00;;;;;20.52;61.32;100949.63;4790766;29;45351;-86
2021/07/27 06:35:56;;;;;;;;;16.67;14.33;;;;;20.51;61.38;100951.41;4790595;29;45293;-86
2021/07/27 06:38:21;;;;;;;;;18.67;13.67;;;;;20.49;61.14;100953.25;4790992;29;45391;-86
2021/07/27 06:40:47;;;;;;;;;17.00;13.67;;;;;20.51;61.23;100964.75;4774986;29;45256;-87
2021/07/27 06:43:12;;;;;;;;;14.33;11.33;;;;;20.50;61.22;100972.78;4790650;29;45456;-86
2021/07/27 06:45:37;;;;;;;;;16.33;15.00;;;;;20.48;61.09;100960.34;4790450;29;45188;-86
2021/07/27 06:48:03;;;;;;;;;16.50;14.00;;;;;20.47;61.15;100971.06;4790513;29;45303;-86
2021/07/27 06:50:29;;;;;;;;;16.33;14.00;;;;;20.45;61.18;100975.56;4790364;29;45307;-85
2021/07/27 06:52:54;;;;;;;;;20.33;15.67;;;;;20.40;61.54;100967.66;4790382;29;46170;-87
2021/07/27 06:55:19;;;;;;;;;18.67;13.33;;;;;20.43;61.19;100975.56;4790359;29;45281;-87
2021/07/27 06:57:46;;;;;;;;;12.33;12.00;;;;;20.41;61.07;100977.41;4790411;29;45443;-86
2021/07/27 07:00:12;;;;;;;;;16.67;12.67;;;;;20.36;61.10;100965.94;4790431;29;45471;-86
2021/07/27 07:02:37;;;;;;;;;11.33;10.33;;;;;20.44;60.96;100984.47;4790112;29;45495;-87
2021/07/27 07:05:03;;;;;;;;;15.67;15.67;;;;;20.39;61.18;100973.03;4790874;29;45353;-86
2021/07/27 07:07:29;;;;;;;;;15.33;15.00;;;;;20.38;61.03;100977.47;4791339;29;45531;-86
2021/07/27 07:09:54;;;;;;;;;15.67;12.00;;;;;20.38;61.30;100982.81;4792145;29;45430;-86
2021/07/27 07:12:19;;;;;;;;;14.67;14.67;;;;;20.38;61.48;100976.59;4805953;29;46042;-87
2021/07/27 07:14:45;;;;;;;;;18.33;14.00;;;;;20.43;61.20;100980.06;4811311;29;45541;-85
2021/07/27 07:17:11;;;;;;;;;15.67;12.33;;;;;20.41;61.04;100972.06;4814039;29;45867;-86
2021/07/27 07:19:37;;;;;;;;;15.33;14.67;;;;;20.46;61.04;100980.88;4800999;29;44723;-86
2021/07/27 07:22:03;;;;;;;;;15.00;14.33;;;;;20.46;61.00;100979.97;4780099;29;47260;-87
2021/07/27 07:24:28;;;;;;;;;16.33;14.00;;;;;20.46;60.52;100983.53;4775584;29;45321;-87
2021/07/27 07:26:54;;;;;;;;;16.00;12.67;;;;;20.44;61.11;100979.13;4774864;29;45690;-87
2021/07/27 07:29:19;;;;;;;;;15.67;14.00;;;;;20.47;60.76;100993.28;4790918;29;45459;-86
2021/07/27 07:31:44;;;;;;;;;12.33;12.33;;;;;20.51;60.63;100988.78;4789962;29;45606;-87
2021/07/27 07:34:10;;;;;;;;;16.33;14.67;;;;;20.55;60.66;100985.16;4789917;29;45382;-85
2021/07/27 07:36:35;;;;;;;;;15.00;11.00;;;;;20.57;60.82;100977.09;4789586;29;45369;-87
2021/07/27 07:39:01;;;;;;;;;12.67;12.67;;;;;20.62;60.66;100985.91;4790088;29;45522;-86
2021/07/27 07:41:28;;;;;;;;;16.33;13.00;;;;;20.68;60.47;100980.44;4789395;29;46380;-87
2021/07/27 07:43:53;;;;;;;;;16.67;14.33;;;;;20.70;60.57;100967.03;4789294;29;45369;-85
2021/07/27 07:46:19;;;;;;;;;16.33;14.67;;;;;20.78;60.23;100980.22;4789714;29;45293;-85
2021/07/27 07:48:44;;;;;;;;;17.33;14.33;;;;;20.83;60.48;100986.38;4773693;29;45489;-86
2021/07/27 07:51:10;;;;;;;;;17.00;14.00;;;;;20.89;59.61;100996.91;4773320;29;47340;-87
2021/07/27 07:53:35;;;;;;;;;17.33;14.33;;;;;20.91;59.78;100987.06;4773085;29;45489;-87
2021/07/27 07:56:01;;;;;;;;;11.00;11.00;;;;;20.90;59.87;100992.44;4773139;29;45440;-87
2021/07/27 07:58:26;;;;;;;;;14.67;14.33;;;;;20.91;59.47;100994.19;4789997;29;45322;-86
2021/07/27 08:00:52;;;;;;;;;16.00;13.33;;;;;20.87;59.98;100989.84;4789385;29;46651;-87
2021/07/27 08:03:17;;;;;;;;;12.67;12.67;;;;;20.92;59.69;100999.50;4789478;29;45232;-87
2021/07/27 08:05:42;;;;;;;;;12.33;12.00;;;;;20.93;60.05;101003.06;4789471;29;45173;-87
2021/07/27 08:08:08;;;;;;;;;13.67;10.67;;;;;20.96;59.66;100983.44;4773459;29;45329;-86
2021/07/27 08:10:33;;;;;;;;;14.33;14.33;;;;;20.94;59.83;100981.66;4789172;29;45287;-87
2021/07/27 08:12:59;;;;;;;;;13.00;11.67;;;;;20.96;59.88;100986.09;4789288;29;45278;-87
2021/07/27 08:15:26;;;;;;;;;15.67;14.67;;;;;21.01;60.44;101000.25;4788661;29;45298;-87
2021/07/27 08:17:52;;;;;;;;;12.67;11.33;;;;;20.99;60.24;100999.41;4789656;29;45407;-87
2021/07/27 08:20:18;;;;;;;;;15.00;14.33;;;;;20.98;60.19;100992.31;4789096;29;46252;-87
2021/07/27 08:22:44;;;;;;;;;13.00;12.00;;;;;20.99;59.79;101007.41;4789149;29;45384;-87
2021/07/27 08:25:18;;;;;;;;;15.67;12.67;;;;;20.93;59.88;101003.97;4773062;29;45417;-87
2021/07/27 08:27:45;;;;;;;;;15.67;12.00;;;;;20.92;60.23;101004.84;4789853;29;45445;-87
2021/07/27 08:30:15;;;;;;;;;12.00;12.00;;;;;20.91;60.14;100997.75;4789230;29;46430;-86
2021/07/27 08:32:48;;;;;;;;;12.33;10.00;;;;;20.91;60.18;100996.88;4789320;29;45267;-87
2021/07/27 08:35:14;;;;;;;;;12.67;10.00;;;;;20.95;60.22;100995.91;4788713;29;45265;-86
2021/07/27 08:37:40;;;;;;;;;15.33;12.33;;;;;20.93;60.41;100979.91;4788994;29;45229;-87
2021/07/27 08:40:07;;;;;;;;;16.00;14.00;;;;;20.94;60.80;100988.78;4788679;29;46643;-88
2021/07/27 08:42:33;;;;;;;;;16.33;13.00;;;;;20.89;60.21;100962.19;4788568;29;45495;-86
2021/07/27 08:45:03;;;;;;;;;16.00;13.33;;;;;20.90;59.96;100971.94;4788817;29;45334;-87
2021/07/27 08:47:32;;;;;;;;;15.00;12.67;;;;;20.87;61.34;100976.47;4788951;29;45362;-86
2021/07/27 08:50:02;;;;;;;;;17.67;13.33;;;;;20.83;60.83;100981.88;4788693;29;45481;-86
2021/07/27 08:52:28;;;;;;;;;19.33;15.33;;;;;20.83;61.27;100975.69;4788491;29;45431;-86
2021/07/27 08:54:54;;;;;;;;;16.33;14.00;;;;;20.79;61.07;100976.66;4788591;29;45361;-86
2021/07/27 08:57:20;;;;;;;;;17.67;13.00;;;;;20.76;60.94;100985.63;4788642;29;45349;-86
2021/07/27 08:59:46;;;;;;;;;13.33;13.33;;;;;20.75;61.33;100985.66;4788565;29;45395;-87
2021/07/27 09:02:11;;;;;;;;;18.00;15.33;;;;;20.71;61.46;100993.72;4772073;29;45464;-86
2021/07/27 09:04:37;;;;;;;;;12.00;12.00;;;;;20.60;61.24;100979.72;4789275;29;45347;-85
2021/07/27 09:07:04;;;;;;;;;15.67;14.33;;;;;20.67;61.74;100986.69;4757290;29;45531;-87
2021/07/27 09:09:34;;;;;;;;;14.33;13.67;;;;;20.67;61.58;100997.38;4788601;29;46457;-86
2021/07/27 09:12:09;;;;;;;;;14.00;13.33;;;;;20.63;62.11;100993.00;4788505;29;45350;-87
2021/07/27 09:14:42;;;;;;;;;16.33;14.00;;;;;20.62;62.18;100996.59;4788674;29;45256;-86
2021/07/27 09:17:07;;;;;;;;;17.00;14.00;;;;;20.63;62.29;100992.09;4788825;29;45352;-85
2021/07/27 09:19:42;;;;;;;;;16.00;15.33;;;;;20.60;62.56;100998.41;4788268;29;45354;-87
2021/07/27 09:22:08;;;;;;;;;16.33;16.00;;;;;20.61;62.43;101000.16;4772108;29;45353;-86
2021/07/27 09:24:34;;;;;;;;;15.67;14.33;;;;;20.60;62.93;100999.28;4789598;29;45190;-84
2021/07/27 09:27:05;;;;;;;;;15.00;14.67;;;;;20.65;63.41;101000.97;4791117;29;45350;-87
2021/07/27 09:29:31;;;;;;;;;14.00;12.67;;;;;20.66;62.90;101002.75;4791296;29;46217;-85
2021/07/27 09:31:59;;;;;;;;;15.67;15.00;;;;;20.67;62.80;100999.16;4791316;29;45358;-85
2021/07/27 09:34:25;;;;;;;;;12.00;10.33;;;;;20.66;62.87;100997.41;4791353;29;45505;-85
2021/07/27 09:37:07;;;;;;;;;16.33;14.00;;;;;20.59;62.94;100986.84;4791461;29;45435;-85
2021/07/27 09:39:34;;;;;;;;;12.67;11.67;;;;;20.64;62.96;100989.44;4791192;29;46415;-86
2021/07/27 09:42:09;;;;;;;;;12.00;12.00;;;;;20.66;62.90;101000.06;4791199;29;45222;-86
2021/07/27 09:44:39;;;;;;;;;16.00;13.67;;;;;20.66;63.29;101008.97;4791768;29;45290;-86
2021/07/27 09:47:06;;;;;;;;;12.00;12.00;;;;;20.67;62.77;100999.16;4792069;29;45336;-86
2021/07/27 09:49:31;;;;;;;;;14.67;13.33;;;;;20.67;62.57;100999.16;4791533;29;45328;-87
2021/07/27 09:51:57;;;;;;;;;18.33;13.67;;;;;20.63;63.17;100998.34;4791993;29;45338;-85
2021/07/27 09:54:25;;;;;;;;;16.67;15.67;;;;;20.57;63.13;100991.34;4791458;29;45274;-86
2021/07/27 09:56:54;;;;;;;;;17.33;14.33;;;;;20.57;63.40;100999.34;4791805;29;45334;-86
2021/07/27 09:59:21;;;;;;;;;15.00;14.67;;;;;20.56;63.40;100997.56;4791181;29;46282;-86
2021/07/27 10:02:03;;;;;;;;;16.00;15.33;;;;;20.63;63.37;101013.47;4790815;29;45361;-86
2021/07/27 10:04:38;;;;;;;;;16.67;16.33;;;;;20.59;62.83;101010.88;4791109;29;45468;-85
2021/07/27 10:07:05;;;;;;;;;15.67;12.67;;;;;20.62;63.74;101017.06;4791230;29;45440;-86
2021/07/27 10:09:32;;;;;;;;;15.33;14.00;;;;;20.60;63.05;101009.09;4790955;29;45435;-85
2021/07/27 10:12:14;;;;;;;;;13.33;11.67;;;;;20.66;63.82;101013.44;4791061;29;45196;-85
2021/07/27 10:14:42;;;;;;;;;15.33;13.67;;;;;20.65;63.76;101014.31;4791317;29;45411;-85
2021/07/27 10:17:09;;;;;;;;;20.33;17.33;;;;;20.60;64.04;101012.63;4775181;29;45373;-86
2021/07/27 10:19:40;;;;;;;;;14.33;12.33;;;;;20.63;63.87;101009.03;4790793;29;46667;-86
2021/07/27 10:22:08;;;;;;;;;16.67;14.67;;;;;20.70;64.17;101021.34;4790813;29;45310;-86
2021/07/27 10:24:44;;;;;;;;;17.00;15.00;;;;;20.73;64.24;101027.53;4790937;29;45409;-86
2021/07/27 10:27:21;;;;;;;;;15.33;13.33;;;;;20.67;64.27;101016.06;4790935;29;45470;-86
2021/07/27 10:29:47;;;;;;;;;9.33;9.33;;;;;20.73;64.15;101023.06;4790312;29;45285;-85
2021/07/27 10:32:13;;;;;;;;;17.00;13.67;;;;;20.69;63.66;101011.56;4790610;29;45438;-85
2021/07/27 10:34:41;;;;;;;;;15.33;14.33;;;;;20.71;63.80;101022.22;4790890;29;45411;-86
2021/07/27 10:37:11;;;;;;;;;14.00;13.67;;;;;20.68;63.74;101012.50;4790573;29;45427;-86
2021/07/27 10:39:53;;;;;;;;;13.67;11.00;;;;;20.65;64.06;101006.31;4789680;29;45535;-86
2021/07/27 10:42:20;;;;;;;;;14.67;13.67;;;;;20.70;64.85;101015.13;4773806;29;45371;-86
2021/07/27 10:44:48;;;;;;;;;14.67;14.67;;;;;20.68;64.80;101006.25;4790535;29;45365;-86
2021/07/27 10:47:24;;;;;;;;;16.33;13.67;;;;;20.72;64.33;101013.31;4789269;29;45617;-86
2021/07/27 10:50:07;;;;;;;;;13.33;12.00;;;;;20.74;64.85;101006.13;4790261;29;46224;-86
2021/07/27 10:52:33;;;;;;;;;6.33;6.00;;;;;20.74;64.45;101005.25;4790300;29;45398;-86
2021/07/27 10:55:01;;;;;;;;;14.33;13.33;;;;;20.71;65.08;101001.72;4790402;29;45323;-86
2021/07/27 10:57:51;;;;;;;;;17.33;15.33;;;;;20.71;64.80;101000.84;4774212;29;45438;-86
2021/07/27 11:00:16;;;;;;;;;13.67;13.67;;;;;20.66;64.48;100987.59;4719286;30;46214;-87
2021/07/27 11:02:42;;;;;;;;;20.33;16.33;;;;;20.68;64.87;100988.47;4733974;30;45546;-86
2021/07/27 11:05:08;;;;;;;;;14.67;11.33;;;;;20.68;64.98;100990.25;4734528;29;45515;-87
2021/07/27 11:07:34;;;;;;;;;13.67;10.67;;;;;20.67;64.95;100992.03;4734302;30;45608;-86
2021/07/27 11:10:01;;;;;;;;;13.33;13.00;;;;;20.64;65.41;100989.44;4734001;30;45550;-87
2021/07/27 11:12:40;;;;;;;;;16.00;14.00;;;;;20.74;65.57;100999.91;4734220;30;45568;-86
2021/07/27 11:15:13;;;;;;;;;12.67;11.67;;;;;20.77;65.23;100987.34;4719315;30;45470;-86
2021/07/27 11:17:46;;;;;;;;;15.67;13.33;;;;;20.80;65.74;100983.75;4719557;30;45554;-87
2021/07/27 11:20:14;;;;;;;;;16.00;14.67;;;;;20.82;65.93;100976.56;4733945;30;45591;-86
2021/07/27 11:22:51;;;;;;;;;17.67;15.33;;;;;20.84;64.62;100974.75;4719237;30;46104;-87
2021/07/27 11:25:21;;;;;;;;;19.00;16.00;;;;;20.90;65.02;100989.75;4734231;30;45344;-85
2021/07/27 11:27:47;;;;;;;;;25.33;21.00;;;;;20.91;65.78;100997.75;4734134;30;45356;-87